Caledonia, Mississippi
Current Conditions -  °F | °C
As of 3:58 PM on Friday 28 Nov 2014 (Local Time) from KCBM Reporting Station
Clear Clear  
Wind Chill: 53°   Ceiling: Unl
Heat Index: 53°   Visibility: 10mi
Dew Point: 24°   Wind: 6mph
Humidity: 33%   Direction: 170°S
Pressure: 30.26"   Gusts: NA
Location:  33.68°N, 88.32°W
Report Text: KCBM 282158Z AUTO 17005KT 10SM CLR 12/M04 A3026 RMK AO2 SLP251 T01151045 $
Loading
Personal Weather Stations






























Interactive Weather Map New forecast layout! Learn more

10-Day Weather Forecast

Advertisements
Track Severe Weather on mobile